createdAt,value
2017-07-31T00:00:36.098Z,96.17
2017-07-31T00:01:48.390Z,96.66
2017-07-31T00:03:00.679Z,96.17
2017-07-31T00:04:13.001Z,96.27
2017-07-31T00:05:25.822Z,96.27
2017-07-31T00:06:38.111Z,96.66
2017-07-31T00:07:50.670Z,96.27
2017-07-31T00:09:03.294Z,96.17
2017-07-31T00:10:15.592Z,96.37
2017-07-31T00:11:28.154Z,97.24
2017-07-31T00:12:40.734Z,96.75
2017-07-31T00:13:53.019Z,96.46
2017-07-31T00:15:05.300Z,96.85
2017-07-31T00:16:17.586Z,96.66
2017-07-31T00:17:29.304Z,97.14
2017-07-31T00:18:41.904Z,96.94
2017-07-31T00:19:54.272Z,96.94
2017-07-31T00:21:06.497Z,97.04
2017-07-31T00:22:19.030Z,96.94
2017-07-31T00:23:31.315Z,97.14
2017-07-31T00:24:43.580Z,96.94
2017-07-31T00:25:55.903Z,97.04
2017-07-31T00:27:08.210Z,97.24
2017-07-31T00:28:20.495Z,97.24
2017-07-31T00:29:32.464Z,97.91
2017-07-31T00:30:44.461Z,97.38
2017-07-31T00:31:57.317Z,97.57
2017-07-31T00:33:09.327Z,97.67
2017-07-31T00:34:21.291Z,97.57
2017-07-31T00:35:33.918Z,97.86
2017-07-31T00:36:46.493Z,97.38
2017-07-31T00:37:58.759Z,97.76
2017-07-31T00:39:11.361Z,97.76
2017-07-31T00:40:23.970Z,97.67
2017-07-31T00:41:36.261Z,98.34
2017-07-31T00:42:48.874Z,98.24
2017-07-31T00:44:00.827Z,98.44
2017-07-31T00:45:12.841Z,99.21
2017-07-31T00:46:25.100Z,98.82
2017-07-31T00:47:37.065Z,99.3
2017-07-31T00:48:49.678Z,99.16
2017-07-31T00:50:02.294Z,99.35
2017-07-31T00:51:14.283Z,99.16
2017-07-31T00:52:26.855Z,99.26
2017-07-31T00:53:39.408Z,99.54
2017-07-31T00:54:51.082Z,99.26
2017-07-31T00:56:03.701Z,99.44
2017-07-31T00:57:15.999Z,99.64
2017-07-31T00:58:28.576Z,99.44
2017-07-31T00:59:41.198Z,99.74
2017-07-31T01:00:53.193Z,99.35
2017-07-31T01:02:05.510Z,99.44
2017-07-31T01:03:17.786Z,99.16
2017-07-31T01:04:30.433Z,99.26
2017-07-31T01:05:43.003Z,99.16
2017-07-31T01:06:55.321Z,99.06
2017-07-31T01:08:07.936Z,99.16
2017-07-31T01:09:20.523Z,99.06
2017-07-31T01:10:33.102Z,98.68
2017-07-31T01:11:45.700Z,99.06
2017-07-31T01:12:57.448Z,99.06
2017-07-31T01:14:09.396Z,99.06
2017-07-31T01:15:21.983Z,99.16
2017-07-31T01:16:34.543Z,99.35
2017-07-31T01:17:47.201Z,98.97
2017-07-31T01:18:59.804Z,98.97
2017-07-31T01:20:12.435Z,99.16
2017-07-31T01:21:24.430Z,98.87
2017-07-31T01:22:36.402Z,99.54
2017-07-31T01:23:48.948Z,99.44
2017-07-31T01:25:00.906Z,99.35
2017-07-31T01:26:13.190Z,99.64
2017-07-31T01:27:25.742Z,99.44
2017-07-31T01:28:38.282Z,99.84
2017-07-31T01:29:50.554Z,99.84
2017-07-31T01:31:03.125Z,99.84
2017-07-31T01:32:15.930Z,99.84
2017-07-31T01:33:28.468Z,99.99
2017-07-31T01:34:40.787Z,99.84
2017-07-31T01:35:53.364Z,99.93
2017-07-31T01:37:05.667Z,99.74
2017-07-31T01:38:18.285Z,99.84
2017-07-31T01:39:30.926Z,99.64
2017-07-31T01:40:43.666Z,99.84
2017-07-31T01:41:56.287Z,99.99
2017-07-31T01:43:07.964Z,99.99
2017-07-31T01:44:20.563Z,99.99
2017-07-31T01:45:33.168Z,99.99
2017-07-31T01:46:45.463Z,99.99
2017-07-31T01:47:58.078Z,99.99
2017-07-31T01:49:10.402Z,99.99
2017-07-31T01:50:23.023Z,99.99
2017-07-31T01:51:35.611Z,99.99
2017-07-31T01:52:48.259Z,99.99
2017-07-31T01:54:00.893Z,99.99
2017-07-31T01:55:13.531Z,99.99
2017-07-31T01:56:25.496Z,99.99
2017-07-31T01:57:37.816Z,99.99
2017-07-31T01:58:50.030Z,99.99
2017-07-31T02:00:02.543Z,99.99
2017-07-31T02:01:14.934Z,99.99
2017-07-31T02:02:27.589Z,99.99
2017-07-31T02:03:39.873Z,99.99
2017-07-31T02:04:52.170Z,99.99
2017-07-31T02:06:04.736Z,99.99
2017-07-31T02:07:17.252Z,99.99
2017-07-31T02:08:29.498Z,99.99
2017-07-31T02:09:42.333Z,99.99
2017-07-31T02:10:54.908Z,99.99
2017-07-31T02:12:07.135Z,99.99
2017-07-31T02:13:19.731Z,99.99
2017-07-31T02:14:31.988Z,99.99
2017-07-31T02:15:44.284Z,99.99
2017-07-31T02:16:56.869Z,99.99
2017-07-31T02:18:09.123Z,99.99
2017-07-31T02:19:21.690Z,99.99
2017-07-31T02:20:33.996Z,99.99
2017-07-31T02:21:46.534Z,99.99
2017-07-31T02:22:58.798Z,99.99
2017-07-31T02:24:11.108Z,99.99
2017-07-31T02:25:23.723Z,99.99
2017-07-31T02:26:36.317Z,99.99
2017-07-31T02:27:48.867Z,99.99
2017-07-31T02:29:01.477Z,99.99
2017-07-31T02:30:13.768Z,99.99
2017-07-31T02:31:26.406Z,99.99
2017-07-31T02:32:38.940Z,99.99
2017-07-31T02:33:51.524Z,99.99
2017-07-31T02:35:04.148Z,99.99
2017-07-31T02:36:16.752Z,99.99
2017-07-31T02:37:29.349Z,99.99
2017-07-31T02:38:41.879Z,99.99
2017-07-31T02:39:54.178Z,99.99
2017-07-31T02:41:06.770Z,99.99
2017-07-31T02:42:19.369Z,99.99
2017-07-31T02:43:31.973Z,99.99
2017-07-31T02:44:44.617Z,99.99
2017-07-31T02:45:56.903Z,99.99
2017-07-31T02:47:09.228Z,99.99
2017-07-31T02:48:22.119Z,99.99
2017-07-31T02:49:34.683Z,99.99
2017-07-31T02:50:46.655Z,99.99
2017-07-31T02:51:59.280Z,99.99
2017-07-31T02:53:11.608Z,99.99
2017-07-31T02:54:23.841Z,99.99
2017-07-31T02:55:36.425Z,99.99
2017-07-31T02:56:48.705Z,99.99
2017-07-31T02:58:00.689Z,99.99
2017-07-31T02:59:12.679Z,99.99
2017-07-31T03:00:24.990Z,99.99
2017-07-31T03:01:37.241Z,99.99
2017-07-31T03:02:49.223Z,99.99
2017-07-31T03:04:01.529Z,99.99
2017-07-31T03:05:14.167Z,99.99
2017-07-31T03:06:26.447Z,99.99
2017-07-31T03:07:39.019Z,99.99
2017-07-31T03:08:51.678Z,99.99
2017-07-31T03:10:03.649Z,99.99
2017-07-31T03:11:16.298Z,99.99
2017-07-31T03:12:28.881Z,99.99
2017-07-31T03:13:41.458Z,99.99
2017-07-31T03:14:54.329Z,99.99
2017-07-31T03:16:06.612Z,99.99
2017-07-31T03:17:19.200Z,99.99
2017-07-31T03:18:31.854Z,99.99
2017-07-31T03:19:44.526Z,99.99
2017-07-31T03:20:57.166Z,99.99
2017-07-31T03:22:09.672Z,99.99
2017-07-31T03:23:22.274Z,99.99
2017-07-31T03:24:34.932Z,99.99
2017-07-31T03:25:47.594Z,99.99
2017-07-31T03:26:59.845Z,99.99
2017-07-31T03:28:12.473Z,99.99
2017-07-31T03:29:24.748Z,99.99
2017-07-31T03:30:37.308Z,99.99
2017-07-31T03:31:49.866Z,99.99
2017-07-31T03:33:02.442Z,99.99
2017-07-31T03:34:14.982Z,99.99
2017-07-31T03:35:27.253Z,99.99
2017-07-31T03:36:39.558Z,99.99
2017-07-31T03:37:52.125Z,99.99
2017-07-31T03:39:04.747Z,99.99
2017-07-31T03:40:17.329Z,99.99
2017-07-31T03:41:29.989Z,99.99
2017-07-31T03:42:42.562Z,99.99
2017-07-31T03:43:55.161Z,99.99
2017-07-31T03:45:07.788Z,99.99
2017-07-31T03:46:20.377Z,99.99
2017-07-31T03:47:32.696Z,99.99
2017-07-31T03:48:44.653Z,99.99
2017-07-31T03:49:56.962Z,99.99
2017-07-31T03:51:09.536Z,99.99
2017-07-31T03:52:21.510Z,99.99
2017-07-31T03:53:33.816Z,99.99
2017-07-31T03:54:46.131Z,99.99
2017-07-31T03:55:58.392Z,99.99
2017-07-31T03:57:10.962Z,99.99
2017-07-31T03:58:23.547Z,99.99
2017-07-31T03:59:36.146Z,99.99
2017-07-31T04:00:48.677Z,99.99
2017-07-31T04:02:01.000Z,99.99
2017-07-31T04:03:13.302Z,99.99
2017-07-31T04:04:25.247Z,99.99
2017-07-31T04:05:37.824Z,99.99
2017-07-31T04:06:50.087Z,99.99
2017-07-31T04:08:02.673Z,99.99
2017-07-31T04:09:15.545Z,99.99
2017-07-31T04:10:27.847Z,99.99
2017-07-31T04:11:39.816Z,99.99
2017-07-31T04:12:52.101Z,99.99
2017-07-31T04:14:04.672Z,99.99
2017-07-31T04:15:17.266Z,99.99
2017-07-31T04:16:29.914Z,99.99
2017-07-31T04:17:42.484Z,99.99
2017-07-31T04:18:55.114Z,99.99
2017-07-31T04:20:07.992Z,99.99
2017-07-31T04:21:20.284Z,99.99
2017-07-31T04:22:32.824Z,99.99
2017-07-31T04:23:45.472Z,99.99
2017-07-31T04:24:58.046Z,99.99
2017-07-31T04:26:10.039Z,99.99
2017-07-31T04:27:22.603Z,99.99
2017-07-31T04:28:35.246Z,99.99
2017-07-31T04:29:47.517Z,99.99
2017-07-31T04:30:59.854Z,99.99
2017-07-31T04:32:12.384Z,99.99
2017-07-31T04:33:24.663Z,99.99
2017-07-31T04:34:36.952Z,99.99
2017-07-31T04:35:49.536Z,99.99
2017-07-31T04:37:02.047Z,99.99
2017-07-31T04:38:14.676Z,99.99
2017-07-31T04:39:27.369Z,99.99
2017-07-31T04:40:39.643Z,99.99
2017-07-31T04:41:51.909Z,99.99
2017-07-31T04:43:04.449Z,99.99
2017-07-31T04:44:16.983Z,99.99
2017-07-31T04:45:29.572Z,99.99
2017-07-31T04:46:41.843Z,99.99
2017-07-31T04:47:54.689Z,99.99
2017-07-31T04:49:07.078Z,99.99
2017-07-31T04:50:19.682Z,99.99
2017-07-31T04:51:32.246Z,99.99
2017-07-31T04:52:44.792Z,99.99
2017-07-31T04:53:57.376Z,99.99
2017-07-31T04:55:09.992Z,99.99
2017-07-31T04:56:22.614Z,99.99
2017-07-31T04:57:35.243Z,99.99
2017-07-31T04:58:47.858Z,99.99
2017-07-31T05:00:00.426Z,99.99
2017-07-31T05:01:12.773Z,99.99
2017-07-31T05:02:25.390Z,99.99
2017-07-31T05:03:37.993Z,99.99
2017-07-31T05:04:50.552Z,99.99
2017-07-31T05:06:03.176Z,99.99
2017-07-31T05:07:15.130Z,99.99
2017-07-31T05:08:27.470Z,99.99
2017-07-31T05:09:40.121Z,99.99
2017-07-31T05:10:52.744Z,99.99
2017-07-31T05:12:05.089Z,99.99
2017-07-31T05:13:17.372Z,99.99
2017-07-31T05:14:29.923Z,99.99
2017-07-31T05:15:42.220Z,99.99
2017-07-31T05:16:54.802Z,99.99
2017-07-31T05:18:07.437Z,99.99
2017-07-31T05:19:19.951Z,99.99
2017-07-31T05:20:32.508Z,99.99
2017-07-31T05:21:45.083Z,99.99
2017-07-31T05:22:57.664Z,99.99
2017-07-31T05:24:09.946Z,99.99
2017-07-31T05:25:22.230Z,99.99
2017-07-31T05:26:34.558Z,99.99
2017-07-31T05:27:46.841Z,99.99
2017-07-31T05:28:59.477Z,99.99
2017-07-31T05:30:12.097Z,99.99
2017-07-31T05:31:24.941Z,99.99
2017-07-31T05:32:37.220Z,99.99
2017-07-31T05:33:49.483Z,99.99
2017-07-31T05:35:02.080Z,99.99
2017-07-31T05:36:14.727Z,99.99
2017-07-31T05:37:26.990Z,99.99
2017-07-31T05:38:39.250Z,99.99
2017-07-31T05:39:51.575Z,99.99
2017-07-31T05:41:03.846Z,99.99
2017-07-31T05:42:16.404Z,99.99
2017-07-31T05:43:28.678Z,99.99
2017-07-31T05:44:41.273Z,99.99
2017-07-31T05:45:53.595Z,99.99
2017-07-31T05:47:05.896Z,99.99
2017-07-31T05:48:18.498Z,99.99
2017-07-31T05:49:31.092Z,99.99
2017-07-31T05:50:43.388Z,99.99
2017-07-31T05:51:55.373Z,99.99
2017-07-31T05:53:07.969Z,99.99
2017-07-31T05:54:20.221Z,99.99
2017-07-31T05:55:32.803Z,99.99
2017-07-31T05:56:44.724Z,99.99
2017-07-31T05:57:56.721Z,99.99
2017-07-31T05:59:09.334Z,99.99
2017-07-31T06:00:21.669Z,99.99
2017-07-31T06:01:34.342Z,99.99
2017-07-31T06:02:46.922Z,99.99
2017-07-31T06:03:58.897Z,99.99
2017-07-31T06:05:11.521Z,99.99
2017-07-31T06:06:24.127Z,99.99
2017-07-31T06:07:36.799Z,99.99
2017-07-31T06:08:49.433Z,99.99
2017-07-31T06:10:00.762Z,99.99
2017-07-31T06:11:12.740Z,99.99
2017-07-31T06:12:25.010Z,99.99
2017-07-31T06:13:37.332Z,99.99
2017-07-31T06:14:49.935Z,99.99
2017-07-31T06:16:02.591Z,99.99
2017-07-31T06:17:14.905Z,99.79
2017-07-31T06:18:27.500Z,99.5
2017-07-31T06:19:40.329Z,99.3
2017-07-31T06:20:52.879Z,99.21
2017-07-31T06:22:05.556Z,98.82
2017-07-31T06:23:17.543Z,98.82
2017-07-31T06:24:29.805Z,98.87
2017-07-31T06:25:42.341Z,98.58
2017-07-31T06:26:54.597Z,97.81
2017-07-31T06:28:07.207Z,97.72
2017-07-31T06:29:19.500Z,97.33
2017-07-31T06:30:32.146Z,97.33
2017-07-31T06:31:44.788Z,97.14
2017-07-31T06:32:56.748Z,97.19
2017-07-31T06:34:09.356Z,96.7
2017-07-31T06:35:21.941Z,96.7
2017-07-31T06:36:33.965Z,96.22
2017-07-31T06:37:46.272Z,96.22
2017-07-31T06:38:58.514Z,95.98
2017-07-31T06:40:11.158Z,95.68
2017-07-31T06:41:23.947Z,94.57
2017-07-31T06:42:36.269Z,93.46
2017-07-31T06:43:48.550Z,92.44
2017-07-31T06:45:01.086Z,91.82
2017-07-31T06:46:13.714Z,91.18
2017-07-31T06:47:25.728Z,89.29
2017-07-31T06:48:38.338Z,88.17
2017-07-31T06:49:50.583Z,87.82
2017-07-31T06:51:02.867Z,86.71
2017-07-31T06:52:15.437Z,86.07
2017-07-31T06:53:27.735Z,84.46
2017-07-31T06:54:39.105Z,83.24
2017-07-31T06:55:51.699Z,82.21
2017-07-31T06:57:04.321Z,81.34
2017-07-31T06:58:16.934Z,80.79
2017-07-31T06:59:29.542Z,80.25
2017-07-31T07:00:41.515Z,79.61
2017-07-31T07:01:54.153Z,78.96
2017-07-31T07:03:06.622Z,76.67
2017-07-31T07:04:18.932Z,75.82
2017-07-31T07:05:31.253Z,75.53
2017-07-31T07:06:43.862Z,75.24
2017-07-31T07:07:56.452Z,75.57
2017-07-31T07:09:09.065Z,74.01
2017-07-31T07:10:21.701Z,74.34
2017-07-31T07:11:33.691Z,72.33
2017-07-31T07:12:46.348Z,71.74
2017-07-31T07:13:58.945Z,71.55
2017-07-31T07:15:11.565Z,71.78
2017-07-31T07:16:24.198Z,70.9
2017-07-31T07:17:36.786Z,70.12
2017-07-31T07:18:49.454Z,69.66
2017-07-31T07:20:01.750Z,69.5
2017-07-31T07:21:13.985Z,68.62
2017-07-31T07:22:26.617Z,67.83
2017-07-31T07:23:39.213Z,67.83
2017-07-31T07:24:51.551Z,67.58
2017-07-31T07:26:02.941Z,67.87
2017-07-31T07:27:14.918Z,66.89
2017-07-31T07:28:27.195Z,66.63
2017-07-31T07:29:39.168Z,66.34
2017-07-31T07:30:51.754Z,65.85
2017-07-31T07:32:03.996Z,64.87
2017-07-31T07:33:16.372Z,64.77
2017-07-31T07:34:28.351Z,64.7
2017-07-31T07:35:40.354Z,63.92
2017-07-31T07:36:52.943Z,64.22
2017-07-31T07:38:05.528Z,63.34
2017-07-31T07:39:17.861Z,64.15
2017-07-31T07:40:29.821Z,63.82
2017-07-31T07:41:42.444Z,64.51
2017-07-31T07:42:54.702Z,64.15
2017-07-31T07:44:07.045Z,64.25
2017-07-31T07:45:19.421Z,62.58
2017-07-31T07:46:32.063Z,62.88
2017-07-31T07:47:44.373Z,63.37
2017-07-31T07:48:56.366Z,63.4
2017-07-31T07:50:08.384Z,62.61
2017-07-31T07:51:21.026Z,62.51
2017-07-31T07:52:33.578Z,62.91
2017-07-31T07:53:45.918Z,62.12
2017-07-31T07:54:58.294Z,61.15
2017-07-31T07:56:10.611Z,60.75
2017-07-31T07:57:23.280Z,61.93
2017-07-31T07:58:35.895Z,61.73
2017-07-31T07:59:48.533Z,61.24
2017-07-31T08:01:00.840Z,61.83
2017-07-31T08:02:13.514Z,61.21
2017-07-31T08:03:26.032Z,61.02
2017-07-31T08:04:38.325Z,61.51
2017-07-31T08:05:50.323Z,61.6
2017-07-31T08:07:02.919Z,61.87
2017-07-31T08:08:15.217Z,62.45
2017-07-31T08:09:27.470Z,63.53
2017-07-31T08:10:39.778Z,63.85
2017-07-31T08:11:52.469Z,63.53
2017-07-31T08:13:04.814Z,62.95
2017-07-31T08:14:17.403Z,62.29
2017-07-31T08:15:30.015Z,62.78
2017-07-31T08:16:42.644Z,61.9
2017-07-31T08:17:55.017Z,61.7
2017-07-31T08:19:07.603Z,62.78
2017-07-31T08:20:20.204Z,61.99
2017-07-31T08:21:32.495Z,62.29
2017-07-31T08:22:44.789Z,62.09
2017-07-31T08:23:57.416Z,62.61
2017-07-31T08:25:10.041Z,62.12
2017-07-31T08:26:22.361Z,62.22
2017-07-31T08:27:35.034Z,61.83
2017-07-31T08:28:47.678Z,62.98
2017-07-31T08:29:59.686Z,62.78
2017-07-31T08:31:11.714Z,62.58
2017-07-31T08:32:23.681Z,63.14
2017-07-31T08:33:36.312Z,63.73
2017-07-31T08:34:48.345Z,63.7
2017-07-31T08:36:00.916Z,64.48
2017-07-31T08:37:12.343Z,64.38
2017-07-31T08:38:24.676Z,64.15
2017-07-31T08:39:37.232Z,64.51
2017-07-31T08:40:49.754Z,65.78
2017-07-31T08:42:01.709Z,66.05
2017-07-31T08:43:14.071Z,66.53
2017-07-31T08:44:26.372Z,66.02
2017-07-31T08:45:39.034Z,67.29
2017-07-31T08:46:51.080Z,67.93
2017-07-31T08:48:03.753Z,67.41
2017-07-31T08:49:16.376Z,67.9
2017-07-31T08:50:28.743Z,68.77
2017-07-31T08:51:41.018Z,69.07
2017-07-31T08:52:53.634Z,69.04
2017-07-31T08:54:06.235Z,69.53
2017-07-31T08:55:18.870Z,69.92
2017-07-31T08:56:31.498Z,69.98
2017-07-31T08:57:44.086Z,70.07
2017-07-31T08:58:56.738Z,70.27
2017-07-31T09:00:09.012Z,71.6
2017-07-31T09:01:21.350Z,72.19
2017-07-31T09:02:33.878Z,71.8
2017-07-31T09:03:45.891Z,71.99
2017-07-31T09:04:58.506Z,72.57
2017-07-31T09:06:11.191Z,71.95
2017-07-31T09:07:23.780Z,71.66
2017-07-31T09:08:36.432Z,71.66
2017-07-31T09:09:48.395Z,71.76
2017-07-31T09:11:00.998Z,71.76
2017-07-31T09:12:13.562Z,72.15
2017-07-31T09:13:25.523Z,72.15
2017-07-31T09:14:37.893Z,72.15
2017-07-31T09:15:50.181Z,72.83
2017-07-31T09:17:02.553Z,73.32
2017-07-31T09:18:14.842Z,72.15
2017-07-31T09:19:27.120Z,72.15
2017-07-31T09:20:39.384Z,71.8
2017-07-31T09:21:52.012Z,71.8
2017-07-31T09:23:04.336Z,70.98
2017-07-31T09:24:16.680Z,71.6
2017-07-31T09:25:29.304Z,71.8
2017-07-31T09:26:41.935Z,71.21
2017-07-31T09:27:54.528Z,70.72
2017-07-31T09:29:07.118Z,70.62
2017-07-31T09:30:18.212Z,71.21
2017-07-31T09:31:30.798Z,71.6
2017-07-31T09:32:43.461Z,71.54
2017-07-31T09:33:55.777Z,70.86
2017-07-31T09:35:08.145Z,69.78
2017-07-31T09:36:20.105Z,70.56
2017-07-31T09:37:32.420Z,70.66
2017-07-31T09:38:44.997Z,70.01
2017-07-31T09:39:56.708Z,70.5
2017-07-31T09:41:09.265Z,71.37
2017-07-31T09:42:21.650Z,71.18
2017-07-31T09:43:33.946Z,69.92
2017-07-31T09:44:46.233Z,69.82
2017-07-31T09:45:58.557Z,68.84
2017-07-31T09:47:11.238Z,68.19
2017-07-31T09:48:23.854Z,67.9
2017-07-31T09:49:36.448Z,68.59
2017-07-31T09:50:49.071Z,68.1
2017-07-31T09:52:01.697Z,67.54
2017-07-31T09:53:14.321Z,67.35
2017-07-31T09:54:27.003Z,66.7
2017-07-31T09:55:39.066Z,65.72
2017-07-31T09:56:51.348Z,65.63
2017-07-31T09:58:03.682Z,64.36
2017-07-31T09:59:16.011Z,66.21
2017-07-31T10:00:28.609Z,65.82
2017-07-31T10:01:40.352Z,65.07
2017-07-31T10:02:52.639Z,63.51
2017-07-31T10:04:05.024Z,63.9
2017-07-31T10:05:17.260Z,63.44
2017-07-31T10:06:29.604Z,63.54
2017-07-31T10:07:41.817Z,63.64
2017-07-31T10:08:54.479Z,63.57
2017-07-31T10:10:07.074Z,63.67
2017-07-31T10:11:19.379Z,63.57
2017-07-31T10:12:31.609Z,63.79
2017-07-31T10:13:44.238Z,63.5
2017-07-31T10:14:56.820Z,63.73
2017-07-31T10:16:09.181Z,63.43
2017-07-31T10:17:21.464Z,61.77
2017-07-31T10:18:34.004Z,61.11
2017-07-31T10:19:46.367Z,61.21
2017-07-31T10:20:58.716Z,60.75
2017-07-31T10:22:11.288Z,59.5
2017-07-31T10:23:23.916Z,59.63
2017-07-31T10:24:36.542Z,59.63
2017-07-31T10:25:49.129Z,58.48
2017-07-31T10:27:01.723Z,58.71
2017-07-31T10:28:14.356Z,58.42
2017-07-31T10:29:26.710Z,57.56
2017-07-31T10:30:39.065Z,56.31
2017-07-31T10:31:51.674Z,55.26
2017-07-31T10:33:03.670Z,54.89
2017-07-31T10:34:16.234Z,55.41
2017-07-31T10:35:28.575Z,54.33
2017-07-31T10:36:41.185Z,54.16
2017-07-31T10:37:53.834Z,53.56
2017-07-31T10:39:06.481Z,51.81
2017-07-31T10:40:18.708Z,51.32
2017-07-31T10:41:31.321Z,51.62
2017-07-31T10:42:43.664Z,51.84
2017-07-31T10:43:55.963Z,51.15
2017-07-31T10:45:08.311Z,51.28
2017-07-31T10:46:20.594Z,51.28
2017-07-31T10:47:32.902Z,51.2
2017-07-31T10:48:45.551Z,50.71
2017-07-31T10:49:57.903Z,49.65
2017-07-31T10:51:09.947Z,49.84
2017-07-31T10:52:22.631Z,49.48
2017-07-31T10:53:34.964Z,48.58
2017-07-31T10:54:47.340Z,47.81
2017-07-31T10:55:59.896Z,47.42
2017-07-31T10:57:12.288Z,47.62
2017-07-31T10:58:24.897Z,47.22
2017-07-31T10:59:37.184Z,46.44
2017-07-31T11:00:49.853Z,46.14
2017-07-31T11:02:02.711Z,46.23
2017-07-31T11:03:15.343Z,46.51
2017-07-31T11:04:27.900Z,46.78
2017-07-31T11:05:40.211Z,47.85
2017-07-31T11:06:52.833Z,49.5
2017-07-31T11:08:05.081Z,50.04
2017-07-31T11:09:17.693Z,50.61
2017-07-31T11:10:30.297Z,50.61
2017-07-31T11:11:42.919Z,49.99
2017-07-31T11:12:55.542Z,49.6
2017-07-31T11:14:07.835Z,49.33
2017-07-31T11:15:20.427Z,49.43
2017-07-31T11:16:32.717Z,48.47
2017-07-31T11:17:45.308Z,46.5
2017-07-31T11:18:57.293Z,45.93
2017-07-31T11:20:09.625Z,45.65
2017-07-31T11:21:22.261Z,44.76
2017-07-31T11:22:34.568Z,45.1
2017-07-31T11:23:46.875Z,45.01
2017-07-31T11:24:59.172Z,44.73
2017-07-31T11:26:11.475Z,44.75
2017-07-31T11:27:24.188Z,45.67
2017-07-31T11:28:36.811Z,45.96
2017-07-31T11:29:49.428Z,44.9
2017-07-31T11:31:02.034Z,44.2
2017-07-31T11:32:14.706Z,43.33
2017-07-31T11:33:27.378Z,42.54
2017-07-31T11:34:40.081Z,41.25
2017-07-31T11:35:52.670Z,41.36
2017-07-31T11:37:04.947Z,40.37
2017-07-31T11:38:17.537Z,40.17
2017-07-31T11:39:30.202Z,39.48
2017-07-31T11:40:42.468Z,39.67
2017-07-31T11:41:55.062Z,38.29
2017-07-31T11:43:07.664Z,39.16
2017-07-31T11:44:20.304Z,38.96
2017-07-31T11:45:32.313Z,38.88
2017-07-31T11:46:44.657Z,39.28
2017-07-31T11:47:57.254Z,39.28
2017-07-31T11:49:09.568Z,39.2
2017-07-31T11:50:22.258Z,39.29
2017-07-31T11:51:34.242Z,39
2017-07-31T11:52:46.549Z,39.2
2017-07-31T11:53:58.886Z,39.29
2017-07-31T11:55:10.872Z,39
2017-07-31T11:56:23.132Z,38.9
2017-07-31T11:57:35.688Z,39.2
2017-07-31T11:58:48.248Z,39.59
2017-07-31T12:00:00.826Z,39.18
2017-07-31T12:01:13.164Z,40.76
2017-07-31T12:02:25.220Z,40.34
2017-07-31T12:03:37.226Z,40.55
2017-07-31T12:04:49.540Z,42.32
2017-07-31T12:06:02.112Z,41.81
2017-07-31T12:07:14.476Z,42.07
2017-07-31T12:08:26.475Z,42.24
2017-07-31T12:09:38.745Z,42.52
2017-07-31T12:10:51.024Z,42.2
2017-07-31T12:12:03.662Z,42.2
2017-07-31T12:13:15.950Z,41.81
2017-07-31T12:14:28.270Z,42.91
2017-07-31T12:15:40.567Z,42.22
2017-07-31T12:16:53.146Z,41.93
2017-07-31T12:18:06.019Z,42.13
2017-07-31T12:19:18.350Z,43.52
2017-07-31T12:20:30.370Z,44.07
2017-07-31T12:21:42.969Z,44.18
2017-07-31T12:22:54.976Z,42.99
2017-07-31T12:24:06.998Z,42.6
2017-07-31T12:25:19.371Z,42.2
2017-07-31T12:26:32.016Z,42.32
2017-07-31T12:27:44.339Z,41.85
2017-07-31T12:28:56.907Z,41.08
2017-07-31T12:30:09.527Z,40.88
2017-07-31T12:31:22.189Z,40.8
2017-07-31T12:32:34.817Z,40.21
2017-07-31T12:33:47.426Z,39.65
2017-07-31T12:34:59.736Z,38.86
2017-07-31T12:36:12.389Z,38.88
2017-07-31T12:37:24.401Z,38.9
2017-07-31T12:38:36.678Z,39.4
2017-07-31T12:39:49.295Z,39.69
2017-07-31T12:41:01.280Z,39.99
2017-07-31T12:42:13.916Z,40.29
2017-07-31T12:43:25.922Z,39.5
2017-07-31T12:44:38.510Z,39.14
2017-07-31T12:45:50.858Z,39.12
2017-07-31T12:47:03.470Z,39.31
2017-07-31T12:48:15.767Z,39.2
2017-07-31T12:49:27.438Z,39.69
2017-07-31T12:50:39.729Z,39.67
2017-07-31T12:51:52.336Z,39.77
2017-07-31T12:53:04.423Z,39.67
2017-07-31T12:54:17.010Z,39.67
2017-07-31T12:55:29.639Z,39.1
2017-07-31T12:56:41.945Z,39.1
2017-07-31T12:57:54.338Z,38.53
2017-07-31T12:59:06.630Z,38.34
2017-07-31T13:00:18.666Z,38.96
2017-07-31T13:01:31.175Z,38.98
2017-07-31T13:02:43.769Z,38.38
2017-07-31T13:03:55.703Z,37.21
2017-07-31T13:05:07.433Z,37.13
2017-07-31T13:06:20.045Z,37.03
2017-07-31T13:07:32.590Z,38.14
2017-07-31T13:08:45.228Z,38.43
2017-07-31T13:09:57.543Z,38.04
2017-07-31T13:11:09.254Z,36.75
2017-07-31T13:12:21.499Z,38.54
2017-07-31T13:13:33.478Z,39.13
2017-07-31T13:14:46.115Z,38.02
2017-07-31T13:15:58.456Z,37.23
2017-07-31T13:17:11.121Z,37.03
2017-07-31T13:18:23.443Z,37.62
2017-07-31T13:19:35.787Z,37.03
2017-07-31T13:20:48.414Z,36.63
2017-07-31T13:22:01.110Z,37.34
2017-07-31T13:23:13.699Z,36.73
2017-07-31T13:24:25.970Z,35.83
2017-07-31T13:25:38.531Z,36.33
2017-07-31T13:26:51.162Z,37.03
2017-07-31T13:28:03.171Z,36.81
2017-07-31T13:29:15.476Z,36.83
2017-07-31T13:30:28.049Z,36.83
2017-07-31T13:31:40.678Z,37.92
2017-07-31T13:32:52.985Z,37.72
2017-07-31T13:34:05.596Z,37.13
2017-07-31T13:35:17.890Z,37.03
2017-07-31T13:36:30.180Z,36.43
2017-07-31T13:37:42.509Z,35.94
2017-07-31T13:38:55.185Z,35.54
2017-07-31T13:40:07.743Z,36.22
2017-07-31T13:41:20.041Z,37.01
2017-07-31T13:42:32.706Z,36.33
2017-07-31T13:43:45.351Z,36.81
2017-07-31T13:44:57.979Z,36.91
2017-07-31T13:46:10.017Z,37.29
2017-07-31T13:47:22.606Z,37.69
2017-07-31T13:48:35.208Z,37.39
2017-07-31T13:49:47.517Z,36.99
2017-07-31T13:51:00.226Z,36.99
2017-07-31T13:52:12.884Z,37.29
2017-07-31T13:53:25.161Z,36.9
2017-07-31T13:54:37.481Z,37.09
2017-07-31T13:55:49.764Z,37.19
2017-07-31T13:57:01.737Z,37.57
2017-07-31T13:58:14.114Z,37.07
2017-07-31T13:59:26.446Z,36.98
2017-07-31T14:00:39.069Z,38.85
2017-07-31T14:01:51.681Z,38.26
2017-07-31T14:03:04.303Z,37.67
2017-07-31T14:04:16.883Z,38.36
2017-07-31T14:05:29.252Z,39.34
2017-07-31T14:06:41.864Z,39.43
2017-07-31T14:07:54.512Z,39.04
2017-07-31T14:09:07.068Z,38.32
2017-07-31T14:10:19.710Z,39.1
2017-07-31T14:11:31.749Z,39.26
2017-07-31T14:12:44.020Z,40.33
2017-07-31T14:13:56.553Z,41.12
2017-07-31T14:15:08.864Z,40.92
2017-07-31T14:16:21.119Z,40.92
2017-07-31T14:17:33.353Z,40.41
2017-07-31T14:18:45.924Z,39.03
2017-07-31T14:19:57.927Z,39.03
2017-07-31T14:21:10.252Z,39
2017-07-31T14:22:22.571Z,39.22
2017-07-31T14:23:35.189Z,39.4
2017-07-31T14:24:47.790Z,39.52
2017-07-31T14:26:00.425Z,39.91
2017-07-31T14:27:12.080Z,39.91
2017-07-31T14:28:24.677Z,40.21
2017-07-31T14:29:37.299Z,39.72
2017-07-31T14:30:49.909Z,39.42
2017-07-31T14:32:02.580Z,39.43
2017-07-31T14:33:14.896Z,39.83
2017-07-31T14:34:27.498Z,39.73
2017-07-31T14:35:40.077Z,39.72
2017-07-31T14:36:52.688Z,39.54
2017-07-31T14:38:04.728Z,39.62
2017-07-31T14:39:17.043Z,39.42
2017-07-31T14:40:29.670Z,39.62
2017-07-31T14:41:42.291Z,39.34
2017-07-31T14:42:54.956Z,39.04
2017-07-31T14:44:07.574Z,39.03
2017-07-31T14:45:20.205Z,39.42
2017-07-31T14:46:32.846Z,40.01
2017-07-31T14:47:45.409Z,41.17
2017-07-31T14:48:58.059Z,40.96
2017-07-31T14:50:10.700Z,41.24
2017-07-31T14:51:23.298Z,40.92
2017-07-31T14:52:35.922Z,41.69
2017-07-31T14:53:48.471Z,42.95
2017-07-31T14:55:00.759Z,43.13
2017-07-31T14:56:13.408Z,42.91
2017-07-31T14:57:26.046Z,44.56
2017-07-31T14:58:38.300Z,44.85
2017-07-31T14:59:49.967Z,45.03
2017-07-31T15:01:02.256Z,45.52
2017-07-31T15:02:14.852Z,46.19
2017-07-31T15:03:27.155Z,46.17
2017-07-31T15:04:39.769Z,46.75
2017-07-31T15:05:51.790Z,47.32
2017-07-31T15:07:04.111Z,46.53
2017-07-31T15:08:16.118Z,46.51
2017-07-31T15:09:28.482Z,47.1
2017-07-31T15:10:40.775Z,47.39
2017-07-31T15:11:53.069Z,48.08
2017-07-31T15:13:05.408Z,49.43
2017-07-31T15:14:17.633Z,48.85
2017-07-31T15:15:30.321Z,48.52
2017-07-31T15:16:42.986Z,49.51
2017-07-31T15:17:54.986Z,48.9
2017-07-31T15:19:07.610Z,48.6
2017-07-31T15:20:19.967Z,49.26
2017-07-31T15:21:32.648Z,48.97
2017-07-31T15:22:45.559Z,48.97
2017-07-31T15:23:57.850Z,48.75
2017-07-31T15:25:10.168Z,49.04
2017-07-31T15:26:21.871Z,49.73
2017-07-31T15:27:34.392Z,50.78
2017-07-31T15:28:47.020Z,50.59
2017-07-31T15:29:59.652Z,50.29
2017-07-31T15:31:11.951Z,50.1
2017-07-31T15:32:24.609Z,50.76
2017-07-31T15:33:37.171Z,52.03
2017-07-31T15:34:49.701Z,52.12